Flugplatz Allendorf/Eder

Für EDFQ sind keine METAR/TAF Berichte vorhanden.
Es werden die Flugwettermeldungen vom Flugplatz Fritzlar Airport in 43 km Entfernung angezeigt.

Bericht für ETHF

vom 29.09. um 14:20 UTC

Wind 9 kt aus 350°

Sichtweite 10 km oder mehr

aufgelockert bewölkt in 3500 ft

aufgelockert bewölkt in 8000 ft

Temperatur 12.0°C

Taupunkt 4.0°C

Luftfeuchtigkeit 58%

Luftdruck 1003 hPa

ETHF 291420Z 35009KT 9999 SCT035TCU SCT080 12/04 Q1003 BLU+BLU+

Prognose für ETHF

vom 29.09. um 13:30 UTC

Zwischen 14:00 UTC und 23:00 UTC

Wind 5 kt aus 220°

Sichtweite 10 km oder mehr

keine signifikanten Wettererscheinungen

aufgelockert bewölkt in 2000 ft

TAF ETHF 291330Z 2914/2923 22005KT 9999 NSW SCT020
Impressum